Time;durP1;ratioP1;P1;durP2;ratioP2;P2;SDS_P1;SDS_P2;PMS_P1;PMS_P2;Temp;Humidity;BMP_temperature;BMP_pressure;BME280_temperature;BME280_humidity;BME280_pressure;Samples;Min_cycle;Max_cycle;Signal;HPM_P1;HPM_P2
2022/08/11 00:00:39;;;;;;;11.52;6.28;;;17.70;99.90;;;;;;5054058;28;20127;-68
2022/08/11 00:03:08;;;;;;;11.40;6.45;;;17.60;99.90;;;;;;5069821;28;22148;-69
2022/08/11 00:05:53;;;;;;;10.40;6.60;;;17.60;99.90;;;;;;5067021;28;20539;-67
2022/08/11 00:08:27;;;;;;;9.10;7.28;;;17.60;99.90;;;;;;5064762;28;20040;-67
2022/08/11 00:11:08;;;;;;;8.32;6.47;;;17.50;99.90;;;;;;5053140;28;20087;-70
2022/08/11 00:13:44;;;;;;;10.93;7.60;;;17.50;99.90;;;;;;5063072;28;20041;-67
2022/08/11 00:16:22;;;;;;;10.02;7.20;;;17.50;99.90;;;;;;5069524;28;20075;-68
2022/08/11 00:18:54;;;;;;;13.55;7.40;;;17.50;99.90;;;;;;5048760;28;20043;-69
2022/08/11 00:21:21;;;;;;;11.88;7.63;;;17.50;99.90;;;;;;5052545;28;20449;-68
2022/08/11 00:23:57;;;;;;;10.63;7.75;;;17.50;99.90;;;;;;5053353;28;20028;-68
2022/08/11 00:26:25;;;;;;;12.20;7.03;;;17.50;99.90;;;;;;5070617;28;20115;-68
2022/08/11 00:28:51;;;;;;;9.20;7.18;;;17.40;99.90;;;;;;5050413;28;20036;-68
2022/08/11 00:31:30;;;;;;;11.93;6.53;;;17.40;99.90;;;;;;5070647;28;20128;-67
2022/08/11 00:34:00;;;;;;;9.00;6.45;;;17.40;99.90;;;;;;5049838;28;20048;-68
2022/08/11 00:36:37;;;;;;;11.32;6.50;;;17.40;99.90;;;;;;5068595;28;20064;-68
2022/08/11 00:39:05;;;;;;;13.68;7.10;;;17.40;99.90;;;;;;5068639;28;20135;-70
2022/08/11 00:41:50;;;;;;;9.30;6.78;;;17.40;99.90;;;;;;5044451;28;20060;-69
2022/08/11 00:44:24;;;;;;;10.75;7.07;;;17.40;99.90;;;;;;5070625;28;20048;-68
2022/08/11 00:47:35;;;;;;;17.40;7.18;;;17.30;99.90;;;;;;5061624;28;20102;-69
2022/08/11 00:50:03;;;;;;;;;;;17.30;99.90;;;;;;4970757;28;20086;-69
2022/08/11 00:52:47;;;;;;;14.40;7.57;;;17.30;99.90;;;;;;5053324;28;20298;-69
2022/08/11 00:55:24;;;;;;;14.80;7.80;;;17.30;99.90;;;;;;5063856;28;20130;-67
2022/08/11 00:58:30;;;;;;;9.77;7.28;;;17.20;99.90;;;;;;5063832;28;20093;-68
2022/08/11 01:01:17;;;;;;;11.10;7.10;;;17.20;99.90;;;;;;5070981;28;20434;-68
2022/08/11 01:04:28;;;;;;;10.27;6.65;;;17.20;99.90;;;;;;5035242;28;20090;-69
2022/08/11 01:07:22;;;;;;;12.50;7.13;;;17.20;99.90;;;;;;5059143;28;20044;-67
2022/08/11 01:10:13;;;;;;;12.80;7.47;;;17.20;99.90;;;;;;5068072;28;20940;-68
2022/08/11 01:13:06;;;;;;;9.00;7.15;;;17.10;99.90;;;;;;5049889;28;20490;-68
2022/08/11 01:16:12;;;;;;;11.43;6.53;;;17.10;99.90;;;;;;5067526;28;20368;-68
2022/08/11 01:19:04;;;;;;;11.73;6.78;;;17.10;99.90;;;;;;5070565;28;20112;-68
2022/08/11 01:21:57;;;;;;;14.13;7.90;;;17.10;99.90;;;;;;5052393;28;20466;-68
2022/08/11 01:24:35;;;;;;;12.63;7.40;;;17.10;99.90;;;;;;5065447;28;20055;-68
2022/08/11 01:27:22;;;;;;;10.65;7.70;;;17.10;99.90;;;;;;5069827;28;20062;-69
2022/08/11 01:30:25;;;;;;;11.05;7.95;;;17.10;99.90;;;;;;5059953;28;20088;-67
2022/08/11 01:33:09;;;;;;;13.95;9.25;;;17.10;99.90;;;;;;5060461;28;20041;-67
2022/08/11 01:35:54;;;;;;;13.13;8.60;;;17.10;99.90;;;;;;5071314;28;20403;-66
2022/08/11 01:38:40;;;;;;;10.27;7.93;;;17.00;99.90;;;;;;5064486;28;20110;-68
2022/08/11 01:44:46;;;;;;;12.60;8.32;;;17.00;99.90;;;;;;5053907;28;20044;-68
2022/08/11 01:47:51;;;;;;;12.48;8.55;;;17.00;99.90;;;;;;5070149;28;20128;-67
2022/08/11 01:50:41;;;;;;;9.68;7.15;;;17.00;99.90;;;;;;5044661;28;20398;-68
2022/08/11 01:53:34;;;;;;;13.80;8.35;;;17.00;99.90;;;;;;5067329;28;20041;-70
2022/08/11 01:56:33;;;;;;;10.90;8.02;;;16.90;99.90;;;;;;5035426;28;20097;-69
2022/08/11 01:59:10;;;;;;;12.38;8.15;;;16.90;99.90;;;;;;5057872;28;20431;-69
2022/08/11 02:01:43;;;;;;;12.38;7.90;;;16.90;99.90;;;;;;5064667;28;20041;-67
2022/08/11 02:04:37;;;;;;;13.20;8.35;;;16.90;99.90;;;;;;5067359;28;20410;-69
2022/08/11 02:07:15;;;;;;;9.40;7.47;;;16.90;99.90;;;;;;5058542;28;20080;-68
2022/08/11 02:11:29;;;;;;;28.15;8.05;;;16.90;99.90;;;;;;5065079;28;20433;-68
2022/08/11 02:12:59;;;;;;;11.88;8.10;;;16.90;99.90;;;;;;5065984;28;20137;-68
2022/08/11 02:15:45;;;;;;;12.57;8.80;;;16.90;99.90;;;;;;5048384;28;20261;-67
2022/08/11 02:24:27;;;;;;;16.38;8.82;;;16.80;99.90;;;;;;5066132;28;20111;-69
2022/08/11 02:27:19;;;;;;;11.48;7.45;;;16.80;99.90;;;;;;5065494;28;20489;-68
2022/08/11 02:29:45;;;;;;;12.50;8.20;;;16.80;99.90;;;;;;5058559;28;20060;-68
2022/08/11 02:35:35;;;;;;;11.80;8.38;;;16.80;99.90;;;;;;5065745;28;20047;-69
2022/08/11 02:38:25;;;;;;;13.23;8.95;;;16.70;99.90;;;;;;5038700;28;20060;-69
2022/08/11 02:42:21;;;;;;;14.15;8.52;;;16.70;99.90;;;;;;5041656;28;20057;-70
2022/08/11 02:44:34;;;;;;;12.93;8.27;;;16.70;99.90;;;;;;5055004;28;20047;-69
2022/08/11 02:47:31;;;;;;;13.68;8.13;;;16.70;99.90;;;;;;5043269;28;20075;-68
2022/08/11 02:50:19;;;;;;;16.52;8.73;;;16.70;99.90;;;;;;5066153;28;20124;-70
2022/08/11 02:53:13;;;;;;;15.65;9.75;;;16.70;99.90;;;;;;5072655;28;20032;-69
2022/08/11 02:55:46;;;;;;;17.35;9.25;;;16.60;99.90;;;;;;5046819;28;20041;-68
2022/08/11 02:58:37;;;;;;;12.63;9.32;;;16.60;99.90;;;;;;5072604;28;20037;-68
2022/08/11 03:01:21;;;;;;;12.15;9.10;;;16.60;99.90;;;;;;5062790;28;20094;-68
2022/08/11 03:04:09;;;;;;;11.40;8.68;;;16.60;99.90;;;;;;5070246;28;20032;-69
2022/08/11 03:06:48;;;;;;;15.20;9.05;;;16.60;99.90;;;;;;5053459;28;20094;-68
2022/08/11 03:09:22;;;;;;;13.80;8.88;;;16.50;99.90;;;;;;5056921;28;20072;-68
2022/08/11 03:18:18;;;;;;;20.55;9.77;;;16.40;99.90;;;;;;5071599;28;20067;-68
2022/08/11 03:20:49;;;;;;;14.43;9.15;;;16.30;99.90;;;;;;5073152;28;20166;-67
2022/08/11 03:23:43;;;;;;;16.23;9.65;;;16.40;99.90;;;;;;5030406;28;20131;-67
2022/08/11 03:26:14;;;;;;;16.92;10.20;;;16.40;99.90;;;;;;5067772;28;20589;-68
2022/08/11 03:29:12;;;;;;;15.80;9.68;;;16.40;99.90;;;;;;5073021;28;20036;-68
2022/08/11 03:32:06;;;;;;;17.88;9.90;;;16.40;99.90;;;;;;5068452;28;20094;-69
2022/08/11 03:34:36;;;;;;;15.85;10.82;;;16.40;99.90;;;;;;5047749;28;20040;-67
2022/08/11 03:37:49;;;;;;;12.63;9.85;;;16.30;99.90;;;;;;5064310;28;20560;-68
2022/08/11 03:44:06;;;;;;;14.90;10.75;;;16.30;99.90;;;;;;4986472;28;20492;-69
2022/08/11 03:47:01;;;;;;;13.88;10.52;;;16.30;99.90;;;;;;5063170;28;20045;-69
2022/08/11 03:49:53;;;;;;;16.65;10.52;;;16.30;99.90;;;;;;5062832;28;20398;-67
2022/08/11 03:52:26;;;;;;;17.33;12.05;;;16.30;99.90;;;;;;5034475;28;20147;-68
2022/08/11 03:55:28;;;;;;;16.13;10.50;;;16.30;99.90;;;;;;5065766;28;20416;-67
2022/08/11 03:58:18;;;;;;;18.35;12.07;;;16.30;99.90;;;;;;5046891;28;20076;-68
2022/08/11 04:01:17;;;;;;;14.10;10.38;;;16.30;99.90;;;;;;5033186;28;20049;-67
2022/08/11 04:03:55;;;;;;;17.13;10.82;;;16.30;99.90;;;;;;5064304;28;20048;-68
2022/08/11 04:06:58;;;;;;;13.02;10.07;;;16.30;99.90;;;;;;5069452;28;20052;-67
2022/08/11 04:10:10;;;;;;;19.23;12.20;;;16.30;99.90;;;;;;5063801;28;20064;-67
2022/08/11 04:13:05;;;;;;;17.42;10.02;;;16.30;99.90;;;;;;5070185;28;20040;-68
2022/08/11 04:16:07;;;;;;;14.43;11.10;;;16.20;99.90;;;;;;5045638;28;20136;-67
2022/08/11 04:18:58;;;;;;;18.60;12.38;;;16.20;99.90;;;;;;5046768;28;20040;-68
2022/08/11 04:21:45;;;;;;;12.77;9.95;;;16.20;99.90;;;;;;5071097;28;20495;-67
2022/08/11 04:24:25;;;;;;;18.90;11.38;;;16.20;99.90;;;;;;5066854;28;20051;-69
2022/08/11 04:27:00;;;;;;;16.77;11.45;;;16.20;99.90;;;;;;5070184;28;20466;-67
2022/08/11 04:29:57;;;;;;;14.82;10.60;;;16.20;99.90;;;;;;5063338;28;20128;-69
2022/08/11 04:32:51;;;;;;;19.63;12.00;;;16.20;99.90;;;;;;5061638;28;20128;-69
2022/08/11 04:35:48;;;;;;;18.35;11.93;;;16.20;99.90;;;;;;5048265;28;20051;-69
2022/08/11 04:38:52;;;;;;;16.42;11.00;;;16.20;99.90;;;;;;5039567;28;20078;-69
2022/08/11 04:45:24;;;;;;;17.23;11.50;;;16.20;99.90;;;;;;5055114;28;20396;-68
2022/08/11 05:01:40;;;;;;;17.88;12.70;;;16.50;99.90;;;;;;5047207;28;20167;-67
2022/08/11 05:07:13;;;;;;;18.77;12.02;;;16.60;99.90;;;;;;5068253;28;20040;-69
2022/08/11 05:10:11;;;;;;;18.33;12.57;;;16.60;99.90;;;;;;5065872;28;20445;-68
2022/08/11 05:27:09;;;;;;;17.98;11.50;;;16.70;99.90;;;;;;5057765;28;20470;-67
2022/08/11 05:36:43;;;;;;;15.32;8.57;;;17.10;99.90;;;;;;5050646;28;20416;-68
2022/08/11 05:57:08;;;;;;;13.90;8.73;;;17.70;99.90;;;;;;5068692;28;20048;-68
2022/08/11 05:59:35;;;;;;;12.23;8.30;;;17.80;99.90;;;;;;5043987;28;21396;-67
2022/08/11 06:02:07;;;;;;;15.30;8.80;;;17.80;99.90;;;;;;5064248;28;20045;-68
2022/08/11 06:04:33;;;;;;;12.00;8.07;;;17.90;99.90;;;;;;5071067;28;20037;-68
2022/08/11 06:07:08;;;;;;;15.68;8.63;;;18.00;99.90;;;;;;5052399;28;20582;-67
2022/08/11 06:09:45;;;;;;;11.10;8.13;;;18.10;99.90;;;;;;5069367;28;20559;-67
2022/08/11 06:12:23;;;;;;;20.52;8.85;;;18.20;99.90;;;;;;5065932;28;20053;-68
2022/08/11 06:14:56;;;;;;;13.93;8.70;;;18.30;99.90;;;;;;5056098;28;20040;-67
2022/08/11 06:17:29;;;;;;;11.65;7.78;;;18.40;99.90;;;;;;5069623;28;20534;-69
2022/08/11 06:20:11;;;;;;;10.02;7.75;;;18.30;99.90;;;;;;5048061;28;20052;-67
2022/08/11 06:22:45;;;;;;;13.65;7.80;;;18.50;99.90;;;;;;5063935;28;20045;-68
2022/08/11 06:25:16;;;;;;;12.38;7.70;;;18.60;99.90;;;;;;5073113;28;20056;-68
2022/08/11 06:27:44;;;;;;;9.23;7.60;;;18.80;99.90;;;;;;5060101;28;20045;-67
2022/08/11 06:30:13;;;;;;;14.27;7.90;;;18.90;99.90;;;;;;5073495;28;20036;-69
2022/08/11 06:32:50;;;;;;;9.15;7.28;;;19.10;99.90;;;;;;5062720;28;20041;-67
2022/08/11 06:35:28;;;;;;;11.18;7.20;;;19.30;99.90;;;;;;5050900;28;20398;-67
2022/08/11 06:38:27;;;;;;;12.07;7.40;;;19.80;99.90;;;;;;5055269;28;20076;-68
2022/08/11 06:44:01;;;;;;;9.32;5.70;;;21.10;99.90;;;;;;5055277;28;20055;-68
2022/08/11 06:46:36;;;;;;;9.18;5.50;;;21.80;99.90;;;;;;5072399;28;20106;-68
2022/08/11 06:49:02;;;;;;;12.57;6.47;;;22.30;99.90;;;;;;5060725;28;20033;-67
2022/08/11 06:51:29;;;;;;;12.73;5.67;;;22.40;99.90;;;;;;5052525;28;20097;-69
2022/08/11 06:54:01;;;;;;;8.13;6.05;;;22.30;99.90;;;;;;5070013;28;20095;-68
2022/08/11 07:02:25;;;;;;;8.60;5.40;;;21.90;99.90;;;;;;5059391;28;20467;-67
2022/08/11 07:04:59;;;;;;;8.45;5.15;;;21.80;99.90;;;;;;5054314;28;20088;-67
2022/08/11 07:16:58;;;;;;;11.23;5.95;;;21.80;99.90;;;;;;5069788;28;20562;-68
2022/08/11 07:30:46;;;;;;;9.38;4.45;;;22.10;99.90;;;;;;5060602;28;20055;-68
2022/08/11 07:33:18;;;;;;;7.15;4.65;;;22.20;99.90;;;;;;5071909;28;20080;-67
2022/08/11 07:35:54;;;;;;;9.25;4.60;;;22.30;99.90;;;;;;5053731;28;20501;-69
2022/08/11 07:38:41;;;;;;;9.50;4.47;;;22.40;99.90;;;;;;5070966;28;20613;-67
2022/08/11 07:41:10;;;;;;;6.28;4.28;;;22.50;99.90;;;;;;5054005;28;20498;-68
2022/08/11 07:43:39;;;;;;;9.48;4.47;;;22.60;99.90;;;;;;5071465;28;20045;-66
2022/08/11 07:54:24;;;;;;;7.85;3.45;;;23.10;99.90;;;;;;5071661;28;20092;-68
2022/08/11 07:56:51;;;;;;;7.70;3.67;;;23.20;99.90;;;;;;5069198;28;20129;-68
2022/08/11 08:18:51;;;;;;;6.07;2.60;;;24.20;99.90;;;;;;5043875;28;20048;-68
2022/08/11 08:21:17;;;;;;;11.15;2.80;;;24.30;99.90;;;;;;5065649;28;20048;-67
2022/08/11 08:23:45;;;;;;;5.88;2.60;;;24.40;99.90;;;;;;5071428;28;20443;-68
2022/08/11 08:31:51;;;;;;;;;;;24.80;98.90;;;;;;5070938;28;20593;-66
2022/08/11 08:34:17;;;;;;;5.97;2.55;;;25.10;98.20;;;;;;5064158;28;19925;-67
2022/08/11 08:36:50;;;;;;;5.85;2.55;;;25.20;98.60;;;;;;5047055;28;20053;-67
2022/08/11 08:39:20;;;;;;;8.68;2.58;;;25.40;97.10;;;;;;5071316;28;20048;-68
2022/08/11 08:41:51;;;;;;;4.38;2.33;;;25.50;96.40;;;;;;5062399;28;20458;-66
2022/08/11 08:44:19;;;;;;;4.53;2.20;;;25.50;96.70;;;;;;5070685;28;20048;-67
2022/08/11 08:46:52;;;;;;;4.05;2.17;;;25.60;96.90;;;;;;5052146;28;20085;-68
2022/08/11 08:49:22;;;;;;;12.25;2.53;;;25.80;96.20;;;;;;5050264;28;20395;-67
2022/08/11 08:51:57;;;;;;;11.30;2.92;;;25.90;95.70;;;;;;5067498;28;20048;-67
2022/08/11 08:54:29;;;;;;;4.93;2.40;;;26.00;95.60;;;;;;5043252;28;20036;-67
2022/08/11 08:56:57;;;;;;;8.68;2.10;;;26.10;95.40;;;;;;5052617;28;20048;-67
2022/08/11 08:59:25;;;;;;;5.75;2.15;;;26.30;95.10;;;;;;5071103;28;20127;-68
2022/08/11 09:02:04;;;;;;;5.00;2.00;;;26.40;94.40;;;;;;5062830;28;20501;-67
2022/08/11 09:04:31;;;;;;;4.45;1.92;;;26.50;93.00;;;;;;5064629;28;20040;-68
2022/08/11 09:07:13;;;;;;;10.25;2.40;;;26.60;93.30;;;;;;5062955;28;20123;-68
2022/08/11 09:09:43;;;;;;;7.28;2.35;;;26.80;91.20;;;;;;5053883;28;20437;-67
2022/08/11 09:12:11;;;;;;;3.88;1.83;;;26.70;92.00;;;;;;5068750;28;20048;-68
2022/08/11 09:14:59;;;;;;;6.82;2.28;;;26.80;92.10;;;;;;5071128;28;20511;-67
2022/08/11 09:17:46;;;;;;;6.10;2.00;;;26.90;91.80;;;;;;5035291;28;20375;-66
2022/08/11 09:20:21;;;;;;;6.40;2.17;;;27.10;90.00;;;;;;5049352;28;20303;-66
2022/08/11 09:28:20;;;;;;;4.38;1.52;;;27.50;90.10;;;;;;5068048;28;20051;-65
2022/08/11 09:30:59;;;;;;;3.55;1.58;;;27.60;88.50;;;;;;5062696;28;20041;-68
2022/08/11 09:33:27;;;;;;;6.32;2.20;;;27.70;85.60;;;;;;5062311;28;20130;-66
2022/08/11 09:35:54;;;;;;;7.00;1.63;;;27.70;87.10;;;;;;5070572;28;20036;-68
2022/08/11 09:41:11;;;;;;;5.50;1.85;;;28.00;81.70;;;;;;5064963;28;20048;-66
2022/08/11 09:46:30;;;;;;;5.70;1.60;;;28.00;81.80;;;;;;5063815;28;20190;-67
2022/08/11 09:48:58;;;;;;;2.95;1.60;;;28.10;79.50;;;;;;5070414;28;20040;-68
2022/08/11 09:51:29;;;;;;;7.47;1.98;;;28.30;76.70;;;;;;5068802;28;20045;-68
2022/08/11 09:53:56;;;;;;;5.20;1.80;;;28.30;77.70;;;;;;5059450;28;20063;-66
2022/08/11 09:59:08;;;;;;;8.85;2.25;;;28.50;79.40;;;;;;5069315;28;19971;-67
2022/08/11 10:01:44;;;;;;;7.30;2.17;;;28.60;77.30;;;;;;5058951;28;20045;-66
2022/08/11 10:04:19;;;;;;;7.47;1.80;;;28.80;75.30;;;;;;5065031;28;20487;-67
2022/08/11 10:07:03;;;;;;;3.15;1.90;;;28.90;76.00;;;;;;5065295;28;20048;-69
2022/08/11 10:09:57;;;;;;;9.90;1.90;;;29.00;73.90;;;;;;5059261;28;20090;-66
2022/08/11 10:12:28;;;;;;;4.75;1.63;;;29.10;73.10;;;;;;5056898;28;20060;-66
2022/08/11 10:20:35;;;;;;;5.97;1.73;;;29.60;70.20;;;;;;5066034;28;20490;-67
2022/08/11 10:28:34;;;;;;;4.68;1.60;;;30.00;66.80;;;;;;5052085;28;20446;-67
2022/08/11 10:36:49;;;;;;;5.68;1.80;;;30.30;63.80;;;;;;5064850;28;20101;-67
2022/08/11 10:39:21;;;;;;;3.03;1.60;;;30.50;63.00;;;;;;5065121;28;20056;-66
2022/08/11 10:44:42;;;;;;;5.72;1.77;;;30.70;61.70;;;;;;5055725;28;20083;-67
2022/08/11 11:00:59;;;;;;;4.10;1.55;;;31.60;60.00;;;;;;5066364;28;20083;-68
2022/08/11 11:03:28;;;;;;;5.57;1.80;;;31.80;61.30;;;;;;5063859;28;20456;-68
2022/08/11 11:06:05;;;;;;;4.05;1.60;;;31.90;60.80;;;;;;5065572;28;20051;-67
2022/08/11 11:11:18;;;;;;;2.90;1.77;;;32.30;59.50;;;;;;5073371;28;20091;-68
2022/08/11 11:19:22;;;;;;;6.97;1.67;;;32.20;59.20;;;;;;5068387;28;20094;-65
2022/08/11 11:21:52;;;;;;;4.05;1.90;;;32.30;59.20;;;;;;5072706;28;20040;-67
2022/08/11 11:24:36;;;;;;;5.40;1.95;;;32.40;58.00;;;;;;5061189;28;20125;-66
2022/08/11 11:27:18;;;;;;;5.75;1.90;;;32.50;57.60;;;;;;5065841;28;20048;-67
2022/08/11 11:30:03;;;;;;;3.80;1.80;;;32.70;57.10;;;;;;5071592;28;20076;-67
2022/08/11 11:32:34;;;;;;;9.93;3.17;;;32.70;56.60;;;;;;5069496;28;20128;-66
2022/08/11 11:35:15;;;;;;;5.00;1.80;;;32.70;57.60;;;;;;5061045;28;20037;-66
2022/08/11 11:37:48;;;;;;;7.32;2.22;;;32.70;57.30;;;;;;5042840;28;20448;-65
2022/08/11 11:40:20;;;;;;;7.55;2.00;;;32.50;56.10;;;;;;5072745;28;20528;-67
2022/08/11 11:42:49;;;;;;;4.82;1.77;;;32.40;56.80;;;;;;5037483;28;20044;-66
2022/08/11 11:45:19;;;;;;;7.22;1.88;;;32.30;56.20;;;;;;5047725;28;20120;-65
2022/08/11 11:47:51;;;;;;;5.55;1.88;;;32.40;55.70;;;;;;5067776;28;20083;-67
2022/08/11 11:50:36;;;;;;;4.70;2.15;;;32.30;55.70;;;;;;5072768;28;20047;-66
2022/08/11 11:53:08;;;;;;;7.78;2.60;;;32.40;56.40;;;;;;5052554;28;20056;-68
2022/08/11 11:55:34;;;;;;;3.30;1.55;;;32.50;57.10;;;;;;5053637;28;20186;-67
2022/08/11 12:03:34;;;;;;;4.32;1.70;;;32.50;56.70;;;;;;5046091;28;20132;-67
2022/08/11 12:06:01;;;;;;;3.75;1.95;;;32.50;56.80;;;;;;5069506;28;20044;-66
2022/08/11 12:08:27;;;;;;;3.33;1.77;;;32.50;55.40;;;;;;5069260;28;20048;-68
2022/08/11 12:13:43;;;;;;;;;;;32.40;54.50;;;;;;5066035;28;20045;-66
2022/08/11 12:16:11;;;;;;;13.93;2.22;;;32.50;53.90;;;;;;5071017;28;20367;-67
2022/08/11 12:18:41;;;;;;;4.82;1.52;;;32.40;54.50;;;;;;5061817;28;20040;-67
2022/08/11 12:21:09;;;;;;;4.70;1.50;;;32.40;54.80;;;;;;5068524;28;20055;-67
2022/08/11 12:29:10;;;;;;;3.75;1.48;;;32.70;55.10;;;;;;5068342;28;20054;-66
2022/08/11 12:31:38;;;;;;;4.32;1.50;;;32.70;55.20;;;;;;5071443;28;20515;-67
2022/08/11 12:34:06;;;;;;;5.22;1.60;;;32.70;55.70;;;;;;5062081;28;20483;-68
2022/08/11 12:36:40;;;;;;;4.22;1.77;;;32.70;55.90;;;;;;5054388;28;20552;-66
2022/08/11 12:39:09;;;;;;;5.38;1.70;;;32.80;55.80;;;;;;5063630;28;20131;-67
2022/08/11 12:47:15;;;;;;;7.80;1.60;;;32.90;55.90;;;;;;5063371;28;20052;-66
2022/08/11 12:52:47;;;;;;;8.68;5.65;;;33.10;55.80;;;;;;5069594;28;20063;-66
2022/08/11 12:58:14;;;;;;;5.80;2.00;;;33.30;54.30;;;;;;5067065;28;20059;-67
2022/08/11 12:58:16;;;;;;;3.85;2.15;;;33.70;55.60;;;;;;5059266;28;20052;-67
2022/08/11 13:06:16;;;;;;;3.88;1.33;;;33.60;54.70;;;;;;5065238;28;19928;-68
2022/08/11 13:08:43;;;;;;;5.10;1.70;;;33.50;52.90;;;;;;5065189;28;20037;-68
2022/08/11 13:13:55;;;;;;;3.70;1.38;;;33.20;53.80;;;;;;5043197;28;20072;-68
2022/08/11 13:16:30;;;;;;;4.38;1.65;;;33.20;53.00;;;;;;5053448;28;20044;-68
2022/08/11 13:18:59;;;;;;;4.38;1.40;;;33.00;53.50;;;;;;5068745;28;20055;-66
2022/08/11 13:21:26;;;;;;;4.72;1.50;;;32.90;52.40;;;;;;5053182;28;20120;-67
2022/08/11 13:23:55;;;;;;;;;;;32.70;53.40;;;;;;5060741;28;20048;-66
2022/08/11 13:26:23;;;;;;;3.75;1.60;;;33.10;54.10;;;;;;5033921;28;19921;-67
2022/08/11 13:28:50;;;;;;;3.90;1.67;;;33.30;53.00;;;;;;5060620;28;20557;-66
2022/08/11 13:31:17;;;;;;;7.47;1.58;;;33.70;53.60;;;;;;5069796;28;20466;-67
2022/08/11 13:33:48;;;;;;;8.00;1.63;;;33.80;53.00;;;;;;5057820;28;20076;-66
2022/08/11 13:36:19;;;;;;;4.93;1.67;;;33.80;52.40;;;;;;5067458;28;20065;-66
2022/08/11 13:38:46;;;;;;;3.00;1.50;;;33.90;52.00;;;;;;5051633;28;20113;-66
2022/08/11 13:43:59;;;;;;;5.15;1.35;;;34.30;51.40;;;;;;5052183;28;20487;-65
2022/08/11 13:46:27;;;;;;;5.15;1.58;;;34.60;51.30;;;;;;5069957;28;20041;-67
2022/08/11 13:48:55;;;;;;;5.97;1.45;;;34.70;50.40;;;;;;5045773;28;20542;-67
2022/08/11 13:51:29;;;;;;;3.55;1.30;;;34.80;49.90;;;;;;5066755;28;20517;-68
2022/08/11 13:54:09;;;;;;;3.05;1.38;;;34.80;50.40;;;;;;5070306;28;20076;-68
2022/08/11 13:56:39;;;;;;;3.40;1.80;;;35.10;50.90;;;;;;5068599;28;20045;-66
2022/08/11 13:59:07;;;;;;;5.13;1.83;;;35.00;50.10;;;;;;5052118;28;20094;-67
2022/08/11 14:01:40;;;;;;;4.40;1.60;;;35.20;50.20;;;;;;5066757;28;20919;-67
2022/08/11 14:04:15;;;;;;;4.85;1.65;;;35.10;50.40;;;;;;5048141;28;20054;-68
2022/08/11 14:06:52;;;;;;;3.53;1.60;;;35.50;49.60;;;;;;5069891;28;20044;-67
2022/08/11 14:09:25;;;;;;;5.05;2.00;;;35.20;50.10;;;;;;5052471;28;20044;-65
2022/08/11 14:14:51;;;;;;;3.28;1.42;;;35.00;49.50;;;;;;5073706;28;20055;-67
2022/08/11 14:17:19;;;;;;;6.75;1.38;;;34.60;50.70;;;;;;5074302;28;20047;-67
2022/08/11 14:19:48;;;;;;;5.30;1.42;;;34.40;51.00;;;;;;5053529;28;20123;-67
2022/08/11 14:22:15;;;;;;;4.30;1.70;;;34.20;50.70;;;;;;5069541;28;20055;-66
2022/08/11 14:24:48;;;;;;;3.30;1.40;;;34.10;51.20;;;;;;5073781;28;20390;-67
2022/08/11 14:27:15;;;;;;;7.72;1.75;;;34.40;51.20;;;;;;5038515;28;20040;-67
2022/08/11 14:29:42;;;;;;;3.95;1.83;;;34.40;51.40;;;;;;5073533;28;20051;-66
2022/08/11 14:32:13;;;;;;;4.38;1.70;;;34.50;51.40;;;;;;5074269;28;20394;-66
2022/08/11 14:34:43;;;;;;;7.00;1.70;;;34.70;51.50;;;;;;5055442;28;20044;-67
2022/08/11 14:37:12;;;;;;;6.80;1.60;;;35.00;51.10;;;;;;5064078;28;20110;-68
2022/08/11 14:39:51;;;;;;;7.35;1.92;;;34.60;52.00;;;;;;5056148;28;20044;-67
2022/08/11 14:48:04;;;;;;;3.35;1.73;;;34.20;52.40;;;;;;5069667;28;20048;-67
2022/08/11 14:50:32;;;;;;;6.50;2.13;;;33.20;52.80;;;;;;5073614;28;20051;-68
2022/08/11 14:53:05;;;;;;;7.47;1.85;;;33.00;53.10;;;;;;5072771;28;20489;-68
2022/08/11 14:58:32;;;;;;;6.10;2.10;;;31.50;55.30;;;;;;5049117;28;20044;-67
2022/08/11 15:01:00;;;;;;;4.90;2.17;;;31.10;55.60;;;;;;5072527;28;20417;-68
2022/08/11 15:03:28;;;;;;;4.97;2.17;;;30.70;55.90;;;;;;5055033;28;20060;-67
2022/08/11 15:05:57;;;;;;;7.22;2.10;;;30.50;55.90;;;;;;5066635;28;20076;-66
2022/08/11 15:09:08;;;;;;;6.80;1.85;;;30.20;56.70;;;;;;5072908;28;20560;-68
2022/08/11 15:14:04;;;;;;;5.57;2.00;;;29.60;57.90;;;;;;5064893;28;20057;-67
2022/08/11 15:19:18;;;;;;;7.80;2.22;;;29.10;58.70;;;;;;5072402;28;20056;-67
2022/08/11 15:24:29;;;;;;;4.53;1.80;;;29.10;58.40;;;;;;5071463;28;20522;-68
2022/08/11 15:38:01;;;;;;;6.30;2.58;;;28.70;59.80;;;;;;5069894;28;20079;-68
2022/08/11 15:46:20;;;;;;;9.68;2.03;;;28.30;60.90;;;;;;5068285;28;20114;-68
2022/08/11 15:48:59;;;;;;;4.63;1.80;;;28.30;61.00;;;;;;5068101;28;20044;-68
2022/08/11 15:51:34;;;;;;;7.78;2.03;;;28.20;61.80;;;;;;5072592;28;20040;-67
2022/08/11 15:54:07;;;;;;;7.75;2.35;;;28.30;61.70;;;;;;5068387;28;20099;-66
2022/08/11 15:56:36;;;;;;;4.45;2.03;;;28.20;61.60;;;;;;5047122;28;20084;-66
2022/08/11 16:04:38;;;;;;;4.25;1.92;;;28.10;61.80;;;;;;5064984;28;20057;-70
2022/08/11 16:07:11;;;;;;;6.10;2.38;;;28.00;61.90;;;;;;5046123;28;20044;-66
2022/08/11 16:09:45;;;;;;;7.32;2.47;;;27.90;62.20;;;;;;5052273;28;20064;-68
2022/08/11 16:12:19;;;;;;;5.68;2.08;;;27.80;62.70;;;;;;5066485;28;20036;-67
2022/08/11 16:17:44;;;;;;;6.60;2.20;;;27.70;62.90;;;;;;5030272;28;20076;-66
2022/08/11 16:20:13;;;;;;;3.92;2.00;;;27.60;63.00;;;;;;5063643;28;20384;-66
2022/08/11 16:22:42;;;;;;;8.00;1.80;;;27.60;62.90;;;;;;5036867;28;20482;-67
2022/08/11 16:25:18;;;;;;;7.45;2.08;;;27.40;63.10;;;;;;5052754;28;20045;-67
2022/08/11 16:27:52;;;;;;;5.28;2.28;;;27.30;63.40;;;;;;5052325;28;20052;-68
2022/08/11 16:30:18;;;;;;;4.82;1.80;;;27.30;63.60;;;;;;5053162;28;20048;-67
2022/08/11 16:32:48;;;;;;;3.47;1.73;;;27.30;63.90;;;;;;5070604;28;20359;-66
2022/08/11 16:40:51;;;;;;;;;;;27.30;64.30;;;;;;5072275;28;20102;-68
2022/08/11 16:48:54;;;;;;;3.35;1.83;;;27.10;65.30;;;;;;5062511;28;20056;-66
2022/08/11 16:51:21;;;;;;;7.13;2.28;;;27.10;65.80;;;;;;5065972;28;20041;-66
2022/08/11 16:53:48;;;;;;;3.55;1.92;;;27.00;65.70;;;;;;5053400;28;20084;-69
2022/08/11 16:56:19;;;;;;;6.95;1.92;;;27.00;65.90;;;;;;5071445;28;20072;-67
2022/08/11 17:01:37;;;;;;;5.20;1.90;;;27.00;66.50;;;;;;5069447;28;20044;-67
2022/08/11 17:18:11;;;;;;;10.70;2.35;;;26.70;68.30;;;;;;5064752;28;20094;-66
2022/08/11 17:20:39;;;;;;;7.18;2.03;;;26.70;68.50;;;;;;5070441;28;20119;-68
2022/08/11 17:25:52;;;;;;;5.80;2.60;;;26.60;69.00;;;;;;5069088;28;20395;-67
2022/08/11 17:28:19;;;;;;;8.60;2.38;;;26.60;69.60;;;;;;5070754;28;20093;-66
2022/08/11 17:36:18;;;;;;;5.78;2.05;;;26.50;70.10;;;;;;5045106;28;20063;-67
2022/08/11 17:38:46;;;;;;;;;;;26.50;70.60;;;;;;5071401;28;20556;-67
2022/08/11 17:49:36;;;;;;;13.88;2.30;;;26.40;70.70;;;;;;5074955;28;20052;-67
2022/08/11 18:00:24;;;;;;;8.10;2.45;;;26.10;71.10;;;;;;5064283;28;20392;-67
2022/08/11 18:05:42;;;;;;;5.07;2.38;;;26.10;70.90;;;;;;5071510;28;20139;-66
